Time;durP1;ratioP1;P1;durP2;ratioP2;P2;SDS_P1;SDS_P2;PMS_P1;PMS_P2;Temp;Humidity;BMP_temperature;BMP_pressure;BME280_temperature;BME280_humidity;BME280_pressure;Samples;Min_cycle;Max_cycle;Signal;HPM_P1;HPM_P2
2022/02/14 00:02:23;;;;;;;13.17;6.30;;;5.90;94.50;;;;;;5072011;28;20537;-53
2022/02/14 00:04:49;;;;;;;14.98;4.90;;;6.00;94.20;;;;;;5072466;28;20392;-53
2022/02/14 00:07:14;;;;;;;9.63;4.60;;;6.10;93.80;;;;;;5062891;28;20403;-53
2022/02/14 00:09:40;;;;;;;8.60;4.72;;;6.10;93.50;;;;;;5060847;28;20407;-53
2022/02/14 00:12:06;;;;;;;10.90;4.93;;;6.90;93.90;;;;;;5062257;28;20960;-53
2022/02/14 00:14:32;;;;;;;11.23;5.00;;;6.00;93.30;;;;;;5061642;28;20410;-53
2022/02/14 00:16:58;;;;;;;9.32;4.72;;;5.90;93.60;;;;;;5064723;28;20475;-54
2022/02/14 00:19:23;;;;;;;11.57;5.20;;;6.00;92.50;;;;;;5062961;28;20504;-53
2022/02/14 00:21:50;;;;;;;10.03;5.00;;;6.10;92.90;;;;;;5064812;28;20869;-53
2022/02/14 00:24:16;;;;;;;10.27;4.80;;;6.10;92.70;;;;;;5051568;28;20484;-53
2022/02/14 00:26:42;;;;;;;10.68;4.82;;;6.20;93.50;;;;;;5062778;28;20389;-53
2022/02/14 00:29:08;;;;;;;10.20;4.80;;;6.20;92.90;;;;;;5092602;28;20735;-53
2022/02/14 00:31:34;;;;;;;10.27;5.13;;;6.30;92.80;;;;;;5074841;28;20597;-53
2022/02/14 00:34:00;;;;;;;11.77;5.70;;;6.30;92.90;;;;;;5061912;28;20381;-53
2022/02/14 00:36:26;;;;;;;11.75;5.20;;;6.40;93.50;;;;;;5067459;28;20388;-53
2022/02/14 00:38:52;;;;;;;12.00;6.13;;;6.40;93.30;;;;;;5062505;28;20819;-53
2022/02/14 00:41:18;;;;;;;10.55;5.20;;;6.40;93.70;;;;;;5055333;28;20480;-53
2022/02/14 00:43:43;;;;;;;9.63;5.15;;;6.40;92.90;;;;;;5066171;28;20407;-53
2022/02/14 00:46:09;;;;;;;10.83;5.17;;;6.50;92.60;;;;;;5054075;28;20395;-54
2022/02/14 00:48:35;;;;;;;9.98;5.38;;;6.70;92.50;;;;;;5071261;28;20399;-54
2022/02/14 00:51:01;;;;;;;9.47;5.20;;;6.50;92.60;;;;;;5071875;28;20402;-53
2022/02/14 00:53:27;;;;;;;9.57;4.90;;;6.50;92.80;;;;;;5070862;28;20384;-53
2022/02/14 00:55:53;;;;;;;8.77;4.50;;;6.40;93.40;;;;;;5053905;28;20415;-52
2022/02/14 00:58:19;;;;;;;8.75;4.55;;;6.30;92.30;;;;;;5071213;28;20380;-55
2022/02/14 01:00:44;;;;;;;10.85;4.90;;;6.40;91.80;;;;;;5071435;28;20399;-53
2022/02/14 01:03:10;;;;;;;9.63;4.80;;;6.60;91.50;;;;;;5071054;28;20404;-58
2022/02/14 01:05:36;;;;;;;9.43;4.90;;;6.70;90.80;;;;;;5070977;28;20388;-53
2022/02/14 01:08:03;;;;;;;9.48;4.68;;;6.80;91.30;;;;;;5071824;28;20757;-53
2022/02/14 01:10:29;;;;;;;10.17;5.10;;;6.90;90.40;;;;;;5070967;28;20390;-53
2022/02/14 01:12:54;;;;;;;8.75;4.80;;;7.00;90.10;;;;;;5071442;28;20449;-54
2022/02/14 01:15:20;;;;;;;10.88;5.10;;;7.20;89.70;;;;;;5070403;28;20547;-53
2022/02/14 01:17:46;;;;;;;9.20;5.27;;;7.20;90.40;;;;;;5071039;28;20885;-54
2022/02/14 01:20:12;;;;;;;9.50;4.70;;;7.20;89.40;;;;;;5071275;28;20853;-58
2022/02/14 01:22:38;;;;;;;9.30;4.78;;;7.10;89.80;;;;;;5070788;28;20416;-53
2022/02/14 01:25:05;;;;;;;9.23;4.65;;;7.00;91.40;;;;;;5071341;28;20375;-53
2022/02/14 01:27:31;;;;;;;10.20;4.80;;;6.90;91.20;;;;;;5070274;28;21321;-53
2022/02/14 01:29:56;;;;;;;11.98;5.50;;;6.90;91.50;;;;;;5071107;28;20383;-53
2022/02/14 01:32:23;;;;;;;9.98;4.43;;;6.90;91.50;;;;;;5069951;28;20388;-53
2022/02/14 01:34:53;;;;;;;9.43;4.30;;;6.70;93.30;;;;;;5071072;28;20380;-53
2022/02/14 01:37:20;;;;;;;8.50;4.75;;;6.60;93.40;;;;;;5069952;28;20395;-54
2022/02/14 01:39:46;;;;;;;9.90;4.80;;;6.50;93.80;;;;;;5070940;28;20463;-53
2022/02/14 01:42:14;;;;;;;9.60;4.40;;;6.40;93.90;;;;;;5070610;28;20392;-58
2022/02/14 01:44:44;;;;;;;11.32;4.88;;;6.30;95.10;;;;;;5069382;28;20458;-53
2022/02/14 01:47:16;;;;;;;9.27;4.13;;;6.30;95.20;;;;;;5070447;28;20463;-53
2022/02/14 01:49:43;;;;;;;9.38;4.85;;;6.20;95.40;;;;;;5069447;28;20399;-53
2022/02/14 01:52:09;;;;;;;9.52;5.00;;;6.10;95.60;;;;;;5069683;28;20425;-52
2022/02/14 01:54:36;;;;;;;12.68;6.20;;;6.50;96.00;;;;;;5068506;28;20410;-52
2022/02/14 01:57:03;;;;;;;13.20;5.72;;;6.10;95.30;;;;;;5069088;28;20379;-54
2022/02/14 01:59:29;;;;;;;14.13;6.72;;;7.70;96.00;;;;;;5052650;28;20392;-52
2022/02/14 02:01:55;;;;;;;14.18;7.13;;;6.30;94.90;;;;;;5049561;28;20412;-52
2022/02/14 02:04:21;;;;;;;11.35;5.70;;;6.30;95.20;;;;;;5049565;28;20382;-53
2022/02/14 02:06:47;;;;;;;11.95;5.80;;;6.40;95.90;;;;;;5050615;28;20389;-52
2022/02/14 02:09:13;;;;;;;15.45;6.75;;;6.30;95.60;;;;;;5050172;28;20393;-57
2022/02/14 02:14:24;;;;;;;22.40;9.15;;;6.30;95.20;;;;;;5049576;28;20527;-52
2022/02/14 02:16:50;;;;;;;21.17;11.60;;;6.30;94.80;;;;;;5050142;28;20755;-52
2022/02/14 02:19:17;;;;;;;22.08;11.40;;;6.30;95.00;;;;;;5031700;28;20405;-57
2022/02/14 02:21:47;;;;;;;15.88;8.43;;;6.30;96.10;;;;;;5050438;28;20404;-53
2022/02/14 02:24:19;;;;;;;11.40;5.90;;;6.30;96.40;;;;;;5049846;28;20382;-58
2022/02/14 02:27:05;;;;;;;18.27;9.20;;;6.20;97.10;;;;;;5051099;28;20782;-53
2022/02/14 02:29:41;;;;;;;14.40;6.93;;;5.90;97.60;;;;;;5064433;28;20372;-52
2022/02/14 02:32:08;;;;;;;15.60;7.30;;;5.90;97.90;;;;;;5053723;28;20502;-52
2022/02/14 02:34:39;;;;;;;13.75;6.65;;;7.00;98.80;;;;;;5037160;28;20476;-52
2022/02/14 02:37:06;;;;;;;13.10;6.78;;;7.20;99.00;;;;;;5053435;28;20413;-52
2022/02/14 02:39:32;;;;;;;17.00;7.47;;;5.90;98.80;;;;;;5049035;28;20385;-52
2022/02/14 02:41:58;;;;;;;14.37;7.20;;;5.90;98.90;;;;;;5049835;28;20416;-52
2022/02/14 02:44:24;;;;;;;14.13;6.65;;;7.30;99.50;;;;;;5049229;28;20381;-52
2022/02/14 02:46:50;;;;;;;13.23;7.22;;;6.00;98.80;;;;;;5049602;28;20465;-52
2022/02/14 02:49:21;;;;;;;14.52;6.70;;;5.90;99.00;;;;;;5049539;28;20381;-57
2022/02/14 02:51:51;;;;;;;17.52;7.18;;;7.20;99.70;;;;;;5049966;28;20905;-52
2022/02/14 02:54:19;;;;;;;14.38;7.30;;;5.90;99.00;;;;;;5049061;28;20477;-57
2022/02/14 02:56:47;;;;;;;14.20;7.43;;;6.00;99.00;;;;;;5049670;28;20389;-52
2022/02/14 02:59:13;;;;;;;16.40;7.70;;;6.00;99.00;;;;;;5049301;28;20427;-54
2022/02/14 03:01:40;;;;;;;14.98;7.70;;;6.20;99.10;;;;;;5049070;28;20373;-54
2022/02/14 03:04:07;;;;;;;14.45;7.97;;;6.10;98.90;;;;;;5049263;28;20393;-53
2022/02/14 03:06:33;;;;;;;14.63;7.38;;;6.00;98.70;;;;;;5048581;28;20377;-53
2022/02/14 03:08:59;;;;;;;12.30;5.80;;;5.90;98.70;;;;;;5049646;28;20455;-53
2022/02/14 03:11:25;;;;;;;16.08;6.70;;;5.90;96.40;;;;;;5048840;28;20412;-53
2022/02/14 03:13:52;;;;;;;15.88;7.40;;;6.00;95.90;;;;;;5051656;28;20400;-54
2022/02/14 03:16:19;;;;;;;13.00;5.90;;;6.10;97.50;;;;;;5053042;28;20385;-54
2022/02/14 03:18:45;;;;;;;9.95;5.47;;;6.10;96.80;;;;;;5053708;28;20417;-53
2022/02/14 03:21:12;;;;;;;12.18;6.00;;;6.10;96.10;;;;;;5053648;28;20937;-53
2022/02/14 03:23:38;;;;;;;14.07;6.47;;;6.20;95.60;;;;;;5052884;28;20397;-53
2022/02/14 03:26:05;;;;;;;7.97;4.22;;;8.10;96.70;;;;;;5053419;28;20420;-53
2022/02/14 03:28:31;;;;;;;9.53;4.63;;;6.20;93.40;;;;;;5052749;28;20544;-53
2022/02/14 03:30:58;;;;;;;10.57;5.25;;;6.30;93.00;;;;;;5053547;28;20451;-53
2022/02/14 03:33:24;;;;;;;9.73;4.97;;;7.00;93.60;;;;;;5052271;28;20389;-53
2022/02/14 03:35:52;;;;;;;11.15;4.80;;;6.30;92.90;;;;;;5052991;28;20377;-54
2022/02/14 03:38:18;;;;;;;12.32;5.97;;;6.30;93.00;;;;;;5052595;28;20389;-58
2022/02/14 03:40:44;;;;;;;11.90;5.60;;;6.30;92.90;;;;;;5053235;28;20382;-53
2022/02/14 03:43:10;;;;;;;10.82;4.60;;;6.40;93.00;;;;;;5053159;28;20401;-53
2022/02/14 03:45:38;;;;;;;9.25;4.05;;;4.90;93.50;;;;;;5052305;28;20993;-53
2022/02/14 03:48:04;;;;;;;9.55;4.80;;;6.10;93.00;;;;;;5053166;28;20385;-53
2022/02/14 03:50:30;;;;;;;9.20;4.70;;;6.20;92.60;;;;;;5052305;28;20531;-53
2022/02/14 03:52:56;;;;;;;10.55;4.78;;;6.10;94.10;;;;;;5053072;28;20472;-52
2022/02/14 03:55:22;;;;;;;9.38;4.05;;;6.00;93.30;;;;;;5052195;28;20400;-53
2022/02/14 03:57:50;;;;;;;9.90;4.47;;;6.00;92.00;;;;;;5051157;28;20381;-53
2022/02/14 04:00:18;;;;;;;9.23;4.28;;;6.10;92.10;;;;;;5052382;28;20455;-58
2022/02/14 04:02:44;;;;;;;8.00;4.10;;;5.90;92.30;;;;;;5052418;28;20877;-53
2022/02/14 04:05:14;;;;;;;8.57;3.97;;;5.90;91.20;;;;;;5055802;28;20482;-53
2022/02/14 04:07:40;;;;;;;11.80;4.07;;;5.90;90.70;;;;;;5053509;28;20377;-53
2022/02/14 04:10:07;;;;;;;8.65;4.35;;;5.90;90.90;;;;;;5052199;28;20460;-53
2022/02/14 04:12:33;;;;;;;11.60;4.50;;;5.80;90.90;;;;;;5051096;28;20871;-53
2022/02/14 04:14:59;;;;;;;7.85;4.38;;;5.70;91.40;;;;;;5052509;28;20409;-53
2022/02/14 04:17:25;;;;;;;10.20;4.22;;;5.70;91.50;;;;;;5058450;28;20407;-53
2022/02/14 04:19:52;;;;;;;9.05;4.65;;;5.50;92.20;;;;;;5056631;28;20886;-53
2022/02/14 04:22:18;;;;;;;8.95;4.38;;;5.50;91.90;;;;;;5051871;28;20447;-58
2022/02/14 04:24:44;;;;;;;10.10;3.78;;;5.50;92.20;;;;;;5051844;28;20381;-53
2022/02/14 04:27:09;;;;;;;8.95;3.90;;;6.50;92.90;;;;;;5052425;28;20421;-53
2022/02/14 04:29:35;;;;;;;8.50;3.70;;;5.60;93.10;;;;;;5051290;28;20609;-53
2022/02/14 04:32:02;;;;;;;8.45;3.95;;;5.40;93.30;;;;;;5066630;28;20489;-53
2022/02/14 04:34:28;;;;;;;8.85;4.10;;;5.40;92.80;;;;;;5071095;28;20376;-53
2022/02/14 04:36:54;;;;;;;8.32;3.85;;;5.50;92.20;;;;;;5071995;28;20396;-53
2022/02/14 04:39:20;;;;;;;8.80;4.00;;;5.60;92.70;;;;;;5071554;28;20387;-58
2022/02/14 04:41:46;;;;;;;7.60;4.00;;;5.70;92.90;;;;;;5063339;28;20450;-53
2022/02/14 04:44:12;;;;;;;8.90;4.20;;;5.70;93.00;;;;;;5071539;28;20392;-53
2022/02/14 04:46:38;;;;;;;9.90;4.03;;;5.70;92.60;;;;;;5070746;28;20368;-53
2022/02/14 04:49:05;;;;;;;9.30;3.97;;;6.70;93.10;;;;;;5071156;28;20383;-54
2022/02/14 04:51:30;;;;;;;7.90;3.90;;;5.80;92.30;;;;;;5070805;28;20471;-53
2022/02/14 04:53:56;;;;;;;8.03;3.40;;;6.40;92.40;;;;;;5071574;28;20522;-53
2022/02/14 04:56:22;;;;;;;11.23;4.10;;;7.00;93.90;;;;;;5070407;28;20444;-53
2022/02/14 04:58:48;;;;;;;9.10;4.05;;;5.60;92.10;;;;;;5071308;28;20461;-53
2022/02/14 05:01:14;;;;;;;7.37;3.63;;;5.80;91.70;;;;;;5068411;28;20760;-53
2022/02/14 05:03:40;;;;;;;7.70;4.00;;;4.10;90.30;;;;;;5068215;28;20403;-53
2022/02/14 05:06:05;;;;;;;9.02;4.03;;;6.00;93.30;;;;;;5058481;28;20405;-52
2022/02/14 05:08:31;;;;;;;10.13;4.15;;;5.60;91.70;;;;;;5066861;28;20376;-52
2022/02/14 05:10:57;;;;;;;8.20;4.43;;;5.60;92.70;;;;;;5064141;28;20389;-53
2022/02/14 05:13:23;;;;;;;8.47;4.20;;;5.50;92.20;;;;;;5050847;28;20404;-52
2022/02/14 05:15:49;;;;;;;8.30;4.20;;;5.50;91.90;;;;;;5050916;28;20908;-52
2022/02/14 05:18:15;;;;;;;9.00;3.85;;;7.30;92.80;;;;;;5062980;28;20408;-52
2022/02/14 05:20:41;;;;;;;8.07;4.13;;;5.50;93.20;;;;;;5070132;28;20393;-54
2022/02/14 05:23:06;;;;;;;10.30;4.30;;;5.40;92.00;;;;;;5065028;28;20504;-54
2022/02/14 05:25:32;;;;;;;9.43;4.20;;;5.40;92.00;;;;;;5069001;28;20495;-53
2022/02/14 05:27:58;;;;;;;8.52;4.00;;;5.40;91.80;;;;;;5069646;28;20414;-53
2022/02/14 05:30:25;;;;;;;8.27;4.18;;;5.40;91.70;;;;;;5068135;28;21174;-54
2022/02/14 05:32:50;;;;;;;7.55;4.03;;;5.80;92.30;;;;;;5036578;28;20403;-55
2022/02/14 05:35:17;;;;;;;10.43;4.40;;;5.20;91.30;;;;;;5054468;28;20894;-60
2022/02/14 05:37:43;;;;;;;7.57;4.03;;;6.40;91.00;;;;;;5049564;28;20932;-55
2022/02/14 05:40:09;;;;;;;9.20;4.70;;;5.40;90.10;;;;;;5050822;28;20396;-55
2022/02/14 05:42:34;;;;;;;9.88;4.90;;;5.40;90.50;;;;;;5051821;28;20400;-52
2022/02/14 05:45:00;;;;;;;13.30;4.20;;;5.40;89.10;;;;;;5070643;28;20872;-52
2022/02/14 05:47:26;;;;;;;9.35;4.07;;;5.30;90.20;;;;;;5053017;28;20480;-54
2022/02/14 05:49:51;;;;;;;9.70;4.40;;;5.30;91.00;;;;;;5050719;28;20386;-55
2022/02/14 05:52:17;;;;;;;7.83;3.80;;;5.50;92.00;;;;;;5050139;28;20953;-59
2022/02/14 05:54:43;;;;;;;10.23;4.10;;;5.10;91.50;;;;;;5049307;28;20386;-53
2022/02/14 05:57:10;;;;;;;9.27;4.70;;;5.00;91.50;;;;;;5049719;28;20421;-54
2022/02/14 05:59:36;;;;;;;8.25;4.20;;;5.10;92.00;;;;;;5048729;28;20447;-53
2022/02/14 06:02:02;;;;;;;12.95;4.60;;;5.80;92.70;;;;;;5053933;28;20950;-54
2022/02/14 06:04:29;;;;;;;11.40;4.70;;;4.90;92.20;;;;;;5032708;28;20399;-54
2022/02/14 06:06:55;;;;;;;11.43;4.68;;;5.00;92.40;;;;;;5054521;28;20521;-53
2022/02/14 06:09:21;;;;;;;11.20;5.05;;;5.10;91.60;;;;;;5053548;28;20377;-59
2022/02/14 06:11:47;;;;;;;10.43;4.80;;;5.10;91.00;;;;;;5065596;28;20398;-54
2022/02/14 06:14:13;;;;;;;10.88;5.20;;;5.90;91.50;;;;;;5066926;28;20399;-53
2022/02/14 06:16:39;;;;;;;11.07;4.90;;;5.20;91.30;;;;;;5067582;28;20379;-53
2022/02/14 06:19:05;;;;;;;11.33;4.73;;;6.80;92.30;;;;;;5066365;28;20925;-53
2022/02/14 06:21:30;;;;;;;10.55;4.60;;;5.20;92.40;;;;;;5069452;28;20387;-53
2022/02/14 06:23:56;;;;;;;9.27;4.10;;;5.20;92.20;;;;;;5069383;28;20797;-54
2022/02/14 06:26:24;;;;;;;10.48;4.43;;;5.20;92.80;;;;;;5058843;28;20470;-54
2022/02/14 06:28:49;;;;;;;9.73;3.85;;;5.20;92.80;;;;;;5062088;28;20412;-54
2022/02/14 06:31:15;;;;;;;10.17;4.20;;;5.20;93.20;;;;;;5070488;28;20376;-53
2022/02/14 06:33:40;;;;;;;11.87;4.67;;;5.20;93.40;;;;;;5068718;28;20463;-54
2022/02/14 06:36:07;;;;;;;14.52;4.78;;;5.20;93.50;;;;;;5068913;28;20390;-54
2022/02/14 06:38:33;;;;;;;11.05;4.95;;;6.40;94.10;;;;;;5068594;28;20384;-53
2022/02/14 06:41:00;;;;;;;11.95;5.18;;;5.10;93.60;;;;;;5069822;28;20794;-55
2022/02/14 06:43:25;;;;;;;13.82;5.82;;;5.00;94.00;;;;;;5062499;28;20408;-54
2022/02/14 06:45:51;;;;;;;14.13;5.17;;;4.90;93.70;;;;;;5067930;28;20445;-53
2022/02/14 06:48:17;;;;;;;11.43;5.40;;;6.60;94.40;;;;;;5068873;28;20764;-54
2022/02/14 06:50:43;;;;;;;14.27;6.60;;;6.80;94.20;;;;;;5052182;28;20382;-53
2022/02/14 06:53:08;;;;;;;13.20;5.90;;;6.40;93.10;;;;;;5058106;28;20876;-53
2022/02/14 06:55:34;;;;;;;11.15;4.82;;;6.50;93.60;;;;;;5068973;28;20463;-54
2022/02/14 06:58:03;;;;;;;12.20;5.30;;;5.10;91.60;;;;;;5069556;28;20845;-54
2022/02/14 07:00:29;;;;;;;9.50;4.77;;;5.30;90.40;;;;;;5068657;28;20380;-53
2022/02/14 07:02:55;;;;;;;13.55;4.80;;;5.40;89.30;;;;;;5069467;28;20536;-53
2022/02/14 07:05:22;;;;;;;11.30;4.50;;;5.40;90.40;;;;;;5061470;28;20408;-58
2022/02/14 07:07:49;;;;;;;13.05;4.47;;;5.30;91.20;;;;;;5069636;28;20592;-53
2022/02/14 07:10:15;;;;;;;11.00;4.80;;;5.40;91.70;;;;;;5068923;28;20391;-53
2022/02/14 07:12:42;;;;;;;16.67;4.78;;;5.40;92.50;;;;;;5068909;28;20372;-53
2022/02/14 07:15:09;;;;;;;10.55;4.88;;;5.40;92.60;;;;;;5068958;28;20388;-53
2022/02/14 07:17:35;;;;;;;13.05;4.43;;;5.30;92.50;;;;;;5068495;28;20403;-53
2022/02/14 07:20:01;;;;;;;10.32;4.60;;;6.50;93.30;;;;;;5069334;28;20403;-53
2022/02/14 07:22:27;;;;;;;12.40;4.20;;;5.30;92.80;;;;;;5068713;28;20924;-53
2022/02/14 07:24:53;;;;;;;11.57;3.80;;;5.40;92.40;;;;;;5068228;28;20887;-53
2022/02/14 07:27:19;;;;;;;9.83;4.00;;;5.70;92.00;;;;;;5069168;28;20380;-58
2022/02/14 07:29:44;;;;;;;15.40;4.22;;;5.80;90.90;;;;;;5060701;28;20395;-56
2022/02/14 07:32:10;;;;;;;11.57;4.50;;;6.10;92.40;;;;;;5054879;28;20480;-54
2022/02/14 07:34:35;;;;;;;11.32;3.95;;;6.90;91.90;;;;;;5048805;28;20782;-54
2022/02/14 07:37:02;;;;;;;8.90;4.40;;;8.10;90.80;;;;;;5048840;28;20472;-56
2022/02/14 07:39:35;;;;;;;12.85;5.40;;;9.30;87.00;;;;;;5054700;28;20439;-53
2022/02/14 07:42:01;;;;;;;10.48;5.32;;;10.60;82.90;;;;;;5069085;28;20845;-53
2022/02/14 07:44:27;;;;;;;13.40;5.70;;;12.10;76.70;;;;;;5050413;28;20521;-53
2022/02/14 07:46:53;;;;;;;9.88;7.20;;;13.20;71.20;;;;;;5068951;28;20870;-54
2022/02/14 07:49:23;;;;;;;11.93;4.70;;;14.00;67.90;;;;;;5051064;28;20964;-57
2022/02/14 07:51:49;;;;;;;14.20;5.20;;;14.90;63.50;;;;;;5069100;28;20540;-55
2022/02/14 07:54:14;;;;;;;10.57;5.03;;;15.70;62.70;;;;;;5051035;28;20388;-54
2022/02/14 07:56:40;;;;;;;12.80;5.30;;;16.50;58.10;;;;;;5058716;28;20639;-54
2022/02/14 07:59:07;;;;;;;17.33;8.65;;;17.30;57.10;;;;;;5057747;28;20803;-54
2022/02/14 08:01:33;;;;;;;9.88;4.43;;;17.70;55.50;;;;;;5070306;28;20482;-54
2022/02/14 08:03:58;;;;;;;10.40;3.72;;;17.80;54.80;;;;;;5071206;28;20901;-54
2022/02/14 08:06:24;;;;;;;10.70;4.65;;;17.90;54.00;;;;;;5071699;28;20412;-55
2022/02/14 08:08:51;;;;;;;14.20;5.03;;;18.20;53.10;;;;;;5072948;28;20391;-54
2022/02/14 08:11:22;;;;;;;11.93;5.97;;;18.60;52.40;;;;;;5072536;28;20403;-54
2022/02/14 08:13:47;;;;;;;14.98;8.60;;;18.90;52.20;;;;;;5072156;28;20386;-54
2022/02/14 08:16:13;;;;;;;15.30;6.20;;;19.60;50.20;;;;;;5066430;28;20504;-54
2022/02/14 08:18:38;;;;;;;15.38;8.35;;;20.10;48.20;;;;;;5051525;28;20420;-54
2022/02/14 08:21:04;;;;;;;14.57;9.80;;;21.10;47.20;;;;;;5070494;28;20410;-56
2022/02/14 08:23:30;;;;;;;11.68;6.00;;;22.20;44.50;;;;;;5071382;28;20422;-55
2022/02/14 08:25:57;;;;;;;12.13;4.40;;;22.70;44.60;;;;;;5072131;28;20927;-54
2022/02/14 08:28:23;;;;;;;11.13;3.80;;;22.00;43.50;;;;;;5053918;28;20426;-59
2022/02/14 08:30:51;;;;;;;9.55;3.83;;;21.00;44.60;;;;;;5067633;28;20500;-53
2022/02/14 08:33:18;;;;;;;8.65;4.70;;;20.90;43.20;;;;;;5063423;28;20893;-54
2022/02/14 08:35:44;;;;;;;11.23;5.15;;;21.00;43.30;;;;;;5058720;28;20388;-55
2022/02/14 08:38:10;;;;;;;10.30;6.80;;;20.40;44.30;;;;;;5067418;28;20409;-55
2022/02/14 08:40:37;;;;;;;8.18;3.38;;;19.20;45.30;;;;;;5070901;28;20376;-54
2022/02/14 08:43:03;;;;;;;12.38;9.43;;;18.60;46.70;;;;;;5071970;28;20498;-55
2022/02/14 08:45:31;;;;;;;12.90;5.57;;;18.70;44.90;;;;;;5071436;28;20435;-53
2022/02/14 08:47:58;;;;;;;19.33;17.92;;;18.90;45.70;;;;;;5071951;28;20395;-54
2022/02/14 08:50:23;;;;;;;24.48;22.27;;;19.00;46.50;;;;;;5071369;28;20380;-59
2022/02/14 08:52:49;;;;;;;24.47;22.73;;;17.80;46.50;;;;;;5071900;28;20387;-54
2022/02/14 08:55:17;;;;;;;19.30;17.80;;;17.40;46.00;;;;;;5071819;28;20437;-54
2022/02/14 08:57:46;;;;;;;21.05;19.45;;;17.70;47.30;;;;;;5070760;28;20376;-54
2022/02/14 09:00:13;;;;;;;19.23;17.75;;;18.00;46.10;;;;;;5061114;28;20410;-54
2022/02/14 09:02:39;;;;;;;17.80;16.40;;;18.00;45.40;;;;;;5058852;28;20957;-54
2022/02/14 09:05:06;;;;;;;19.10;17.50;;;17.40;47.00;;;;;;5062979;28;20400;-54
2022/02/14 09:07:32;;;;;;;17.27;16.08;;;16.90;46.40;;;;;;5070805;28;20420;-54
2022/02/14 09:09:58;;;;;;;15.40;12.65;;;16.90;46.80;;;;;;5071314;28;20376;-54
2022/02/14 09:12:24;;;;;;;18.07;16.70;;;16.10;47.30;;;;;;5068474;28;20869;-58
2022/02/14 09:14:50;;;;;;;13.07;10.95;;;15.60;48.80;;;;;;5053606;28;20465;-54
2022/02/14 09:17:16;;;;;;;16.08;14.68;;;15.20;50.90;;;;;;5059607;28;20416;-54
2022/02/14 09:19:42;;;;;;;20.73;18.73;;;15.00;52.40;;;;;;5056296;28;20641;-53
2022/02/14 09:22:09;;;;;;;19.07;17.47;;;14.40;52.30;;;;;;5068250;28;20930;-53
2022/02/14 09:24:35;;;;;;;15.77;12.45;;;14.40;52.50;;;;;;5051776;28;20389;-53
2022/02/14 09:27:01;;;;;;;12.73;10.80;;;14.30;52.70;;;;;;5070400;28;20762;-54
2022/02/14 09:29:26;;;;;;;12.93;11.52;;;13.90;52.90;;;;;;5070246;28;20930;-54
2022/02/14 09:31:53;;;;;;;12.57;11.37;;;13.70;55.00;;;;;;5071006;28;20970;-53
2022/02/14 09:34:19;;;;;;;13.52;12.07;;;13.40;55.40;;;;;;5071097;28;20877;-53
2022/02/14 09:36:46;;;;;;;12.63;11.30;;;13.10;55.80;;;;;;5068844;28;20784;-53
2022/02/14 09:39:12;;;;;;;14.88;10.50;;;13.20;56.80;;;;;;5054151;28;20408;-53
2022/02/14 09:41:39;;;;;;;14.57;10.50;;;13.30;57.90;;;;;;5065350;28;20371;-54
2022/02/14 09:44:06;;;;;;;11.82;10.63;;;13.40;57.60;;;;;;5052940;28;20900;-54
2022/02/14 09:46:33;;;;;;;14.60;10.67;;;13.40;57.20;;;;;;5061586;28;20874;-54
2022/02/14 09:49:04;;;;;;;18.60;11.05;;;13.10;57.10;;;;;;5055280;28;20398;-54
2022/02/14 09:51:30;;;;;;;11.93;9.95;;;13.10;57.70;;;;;;5070031;28;20383;-54
2022/02/14 09:53:58;;;;;;;13.48;11.35;;;13.30;57.90;;;;;;5067729;28;20922;-54
2022/02/14 09:56:24;;;;;;;17.13;12.40;;;13.30;60.00;;;;;;5070180;28;20372;-59
2022/02/14 09:58:50;;;;;;;16.45;12.73;;;12.90;60.60;;;;;;5070649;28;20371;-54
2022/02/14 10:01:17;;;;;;;24.25;19.10;;;12.90;60.90;;;;;;5068081;28;20396;-53
2022/02/14 10:03:52;;;;;;;11.98;10.40;;;13.00;62.60;;;;;;5057557;28;20452;-53
2022/02/14 10:06:29;;;;;;;10.13;7.18;;;13.10;63.50;;;;;;5032377;28;20712;-56
2022/02/14 10:09:08;;;;;;;12.73;8.32;;;12.90;63.20;;;;;;5065812;28;20396;-55
2022/02/14 10:11:36;;;;;;;10.95;9.27;;;12.80;64.50;;;;;;5082192;28;20425;-54
2022/02/14 10:14:19;;;;;;;12.13;10.00;;;11.80;63.80;;;;;;5080095;28;20896;-54
2022/02/14 10:17:22;;;;;;;10.73;9.38;;;12.40;64.70;;;;;;5069235;28;20363;-53
2022/02/14 10:19:56;;;;;;;12.53;9.23;;;12.30;67.20;;;;;;5028068;28;20428;-53
2022/02/14 10:22:22;;;;;;;9.15;6.93;;;12.10;66.60;;;;;;5069494;28;20409;-58
2022/02/14 10:24:48;;;;;;;10.57;5.20;;;12.10;67.20;;;;;;5067945;28;20380;-54
2022/02/14 10:27:14;;;;;;;9.63;7.50;;;12.30;67.80;;;;;;5072314;28;20384;-55
2022/02/14 10:29:42;;;;;;;13.15;10.00;;;12.20;68.90;;;;;;5081780;28;20402;-53
2022/02/14 10:32:24;;;;;;;13.25;8.65;;;12.30;67.60;;;;;;5083043;28;20405;-53
2022/02/14 10:34:52;;;;;;;11.70;7.57;;;12.20;68.10;;;;;;5084535;28;20440;-54
2022/02/14 10:37:18;;;;;;;14.10;12.90;;;12.40;69.80;;;;;;5090170;28;20373;-53
2022/02/14 10:39:46;;;;;;;8.20;6.57;;;12.40;69.50;;;;;;5089184;28;20384;-53
2022/02/14 10:42:13;;;;;;;11.45;10.23;;;12.40;70.60;;;;;;5089995;28;20382;-53
2022/02/14 10:47:32;;;;;;;14.40;7.35;;;12.30;68.70;;;;;;5089064;28;20380;-53
2022/02/14 10:50:06;;;;;;;13.70;6.78;;;12.40;70.40;;;;;;5090126;28;20386;-53
2022/02/14 10:52:53;;;;;;;9.80;4.10;;;12.50;70.80;;;;;;5089411;28;20382;-55
2022/02/14 10:55:27;;;;;;;13.80;6.10;;;12.60;70.70;;;;;;5089810;28;20397;-53
2022/02/14 10:57:56;;;;;;;13.75;7.32;;;12.90;72.10;;;;;;5089938;28;20400;-53
2022/02/14 11:00:24;;;;;;;10.20;3.30;;;13.10;72.00;;;;;;5089835;28;20377;-53
2022/02/14 11:02:53;;;;;;;10.10;6.25;;;13.40;71.40;;;;;;5089391;28;20394;-53
2022/02/14 11:05:20;;;;;;;10.93;3.80;;;14.10;71.90;;;;;;5089650;28;20385;-54
2022/02/14 11:07:46;;;;;;;10.05;4.50;;;14.60;70.70;;;;;;5089281;28;20471;-53
2022/02/14 11:10:14;;;;;;;9.90;4.47;;;14.50;69.20;;;;;;5089362;28;20393;-53
2022/02/14 11:12:47;;;;;;;8.38;3.08;;;14.70;73.60;;;;;;5088983;28;20867;-53
2022/02/14 11:15:14;;;;;;;10.50;4.60;;;14.80;70.10;;;;;;5069716;28;20388;-54
2022/02/14 11:17:48;;;;;;;8.90;3.40;;;14.80;73.30;;;;;;5068438;28;20487;-54
2022/02/14 11:20:15;;;;;;;10.52;3.63;;;14.40;73.70;;;;;;5051702;28;20424;-54
2022/02/14 11:22:44;;;;;;;8.98;3.10;;;14.20;73.40;;;;;;5068832;28;20407;-54
2022/02/14 11:25:34;;;;;;;9.90;3.72;;;13.80;73.80;;;;;;5069180;28;20376;-54
2022/02/14 11:28:17;;;;;;;9.27;2.05;;;13.80;76.40;;;;;;5069837;28;20413;-54
2022/02/14 11:30:50;;;;;;;7.38;2.60;;;13.80;76.10;;;;;;5068507;28;20448;-54
2022/02/14 11:33:22;;;;;;;6.75;1.92;;;13.90;77.30;;;;;;5069454;28;20391;-53
2022/02/14 11:35:58;;;;;;;8.20;2.30;;;13.60;76.60;;;;;;5072325;28;20442;-54
2022/02/14 11:38:52;;;;;;;8.80;2.20;;;13.60;78.20;;;;;;5072989;28;20435;-59
2022/02/14 11:41:24;;;;;;;7.50;1.98;;;13.70;79.40;;;;;;5073523;28;20416;-54
2022/02/14 11:43:51;;;;;;;10.40;1.95;;;13.50;78.40;;;;;;5072883;28;20885;-54
2022/02/14 11:46:19;;;;;;;5.70;1.70;;;13.30;80.60;;;;;;5073138;28;20457;-54
2022/02/14 11:49:12;;;;;;;6.93;2.10;;;13.10;80.10;;;;;;5072544;28;20417;-54
2022/02/14 11:51:49;;;;;;;6.60;2.10;;;13.10;82.30;;;;;;5072440;28;20380;-54
2022/02/14 11:54:52;;;;;;;7.28;2.20;;;13.20;83.80;;;;;;5073030;28;20422;-54
2022/02/14 11:57:31;;;;;;;9.23;2.65;;;13.20;82.10;;;;;;5055248;28;20402;-54
2022/02/14 12:00:23;;;;;;;12.18;3.00;;;13.10;81.30;;;;;;5072877;28;20393;-54
2022/02/14 12:03:08;;;;;;;9.20;2.10;;;13.10;81.50;;;;;;5063789;28;20451;-54
2022/02/14 12:05:47;;;;;;;6.80;1.80;;;13.00;82.30;;;;;;5071958;28;20407;-54
2022/02/14 12:08:14;;;;;;;8.65;2.13;;;13.00;83.40;;;;;;5072971;28;20380;-54
2022/02/14 12:11:03;;;;;;;9.68;2.00;;;12.90;83.30;;;;;;5071477;28;20429;-54
2022/02/14 12:13:34;;;;;;;7.37;2.10;;;13.00;82.90;;;;;;5070550;28;20476;-54
2022/02/14 12:21:29;;;;;;;6.40;1.80;;;12.90;85.30;;;;;;5072667;28;20383;-54
2022/02/14 12:24:00;;;;;;;6.45;2.08;;;12.80;85.50;;;;;;5072361;28;20411;-55
2022/02/14 12:26:30;;;;;;;8.35;2.20;;;12.80;85.30;;;;;;5071910;28;20463;-59
2022/02/14 12:31:51;;;;;;;6.55;2.08;;;12.80;85.50;;;;;;5071641;28;20372;-54
2022/02/14 12:34:25;;;;;;;8.73;2.30;;;12.90;86.10;;;;;;5072353;28;20388;-54
2022/02/14 12:36:53;;;;;;;6.77;1.87;;;12.90;87.10;;;;;;5071922;28;20390;-54
2022/02/14 12:39:29;;;;;;;7.30;2.10;;;12.90;86.40;;;;;;5071822;28;20482;-54
2022/02/14 12:41:55;;;;;;;8.10;2.40;;;12.90;87.00;;;;;;5071765;28;20850;-54
2022/02/14 12:44:21;;;;;;;8.77;2.20;;;12.90;87.90;;;;;;5072186;28;20407;-54
2022/02/14 12:46:46;;;;;;;7.82;2.50;;;13.10;89.40;;;;;;5070847;28;20445;-54
2022/02/14 12:49:12;;;;;;;5.93;1.70;;;13.20;89.10;;;;;;5071631;28;20753;-54
2022/02/14 12:51:38;;;;;;;6.80;2.07;;;13.20;90.20;;;;;;5071031;28;20751;-53
2022/02/14 12:54:05;;;;;;;7.65;2.20;;;13.20;90.00;;;;;;5053977;28;20983;-54
2022/02/14 12:56:36;;;;;;;7.70;1.80;;;13.10;89.60;;;;;;5071164;28;20745;-54
2022/02/14 12:59:03;;;;;;;8.48;2.30;;;13.30;90.30;;;;;;5071677;28;20463;-54
2022/02/14 13:01:44;;;;;;;8.52;2.20;;;13.40;90.50;;;;;;5071116;28;20403;-54
2022/02/14 13:04:12;;;;;;;7.40;2.10;;;13.50;90.80;;;;;;5071534;28;20403;-54